createdAt,value
2022-12-03T00:00:11.901Z,63.87
2022-12-03T00:02:40.286Z,63.87
2022-12-03T00:05:09.935Z,64.21
2022-12-03T00:07:37.491Z,63.82
2022-12-03T00:10:06.483Z,63.94
2022-12-03T00:12:34.003Z,64.34
2022-12-03T00:15:01.488Z,64.13
2022-12-03T00:17:28.996Z,64.56
2022-12-03T00:19:56.520Z,64.32
2022-12-03T00:22:25.364Z,63.85
2022-12-03T00:24:53.106Z,64.04
2022-12-03T00:27:22.017Z,63.65
2022-12-03T00:29:52.219Z,63.44
2022-12-03T00:32:19.687Z,63.52
2022-12-03T00:34:47.187Z,63.45
2022-12-03T00:37:14.710Z,63.36
2022-12-03T00:39:43.520Z,63.30
2022-12-03T00:42:10.969Z,63.58
2022-12-03T00:44:38.448Z,63.67
2022-12-03T00:47:06.114Z,63.35
2022-12-03T00:49:33.635Z,63.28
2022-12-03T00:52:01.127Z,63.27
2022-12-03T00:54:32.128Z,63.24
2022-12-03T00:57:01.231Z,63.46
2022-12-03T00:59:28.725Z,63.35
2022-12-03T01:01:56.270Z,63.71
2022-12-03T01:04:24.004Z,63.64
2022-12-03T01:06:51.639Z,63.86
2022-12-03T01:09:19.119Z,63.75
2022-12-03T01:11:46.590Z,64.12
2022-12-03T01:14:17.195Z,63.53
2022-12-03T01:16:45.786Z,63.38
2022-12-03T01:19:15.718Z,63.26
2022-12-03T01:21:43.635Z,62.99
2022-12-03T01:24:11.460Z,63.14
2022-12-03T01:26:38.988Z,63.55
2022-12-03T01:29:06.784Z,63.23
2022-12-03T01:31:53.223Z,63.32
2022-12-03T01:34:20.847Z,63.16
2022-12-03T01:36:48.334Z,63.42
2022-12-03T01:39:15.856Z,63.82
2022-12-03T01:41:43.357Z,63.50
2022-12-03T01:44:17.779Z,63.36
2022-12-03T01:46:47.677Z,63.76
2022-12-03T01:49:21.035Z,63.64
2022-12-03T01:51:49.564Z,63.44
2022-12-03T01:54:19.533Z,63.32
2022-12-03T01:56:48.059Z,64.01
2022-12-03T01:59:17.844Z,63.67
2022-12-03T02:01:47.393Z,63.46
2022-12-03T02:04:16.951Z,63.80
2022-12-03T02:06:45.662Z,63.61
2022-12-03T02:09:14.550Z,63.47
2022-12-03T02:11:46.302Z,63.51
2022-12-03T02:14:17.966Z,64.17
2022-12-03T02:16:47.165Z,63.59
2022-12-03T02:19:22.571Z,63.15
2022-12-03T02:21:54.639Z,63.80
2022-12-03T02:24:29.971Z,63.56
2022-12-03T02:26:58.781Z,63.08
2022-12-03T02:29:26.476Z,63.71
2022-12-03T02:31:54.016Z,63.48
2022-12-03T02:34:36.515Z,63.62
2022-12-03T02:37:05.337Z,63.60
2022-12-03T02:39:33.999Z,63.04
2022-12-03T02:42:20.803Z,63.27
2022-12-03T02:44:48.369Z,62.83
2022-12-03T02:47:15.957Z,63.29
2022-12-03T02:49:43.936Z,62.69
2022-12-03T02:52:11.868Z,62.92
2022-12-03T02:54:39.383Z,62.87
2022-12-03T02:57:08.296Z,62.67
2022-12-03T02:59:35.895Z,63.15
2022-12-03T03:02:03.583Z,63.43
2022-12-03T03:04:31.377Z,62.57
2022-12-03T03:06:59.053Z,62.28
2022-12-03T03:09:26.613Z,62.93
2022-12-03T03:11:54.064Z,62.38
2022-12-03T03:14:22.914Z,62.06
2022-12-03T03:16:56.009Z,62.20
2022-12-03T03:19:24.997Z,62.88
2022-12-03T03:21:53.090Z,62.50
2022-12-03T03:24:21.476Z,62.38
2022-12-03T03:26:49.387Z,62.40
2022-12-03T03:29:17.551Z,62.43
2022-12-03T03:31:47.614Z,62.26
2022-12-03T03:34:16.075Z,62.36
2022-12-03T03:36:43.676Z,62.75
2022-12-03T03:39:11.293Z,62.60
2022-12-03T03:41:39.511Z,63.35
2022-12-03T03:44:09.162Z,63.39
2022-12-03T03:46:38.199Z,63.11
2022-12-03T03:49:07.843Z,62.73
2022-12-03T03:51:36.648Z,62.99
2022-12-03T03:54:06.416Z,63.37
2022-12-03T03:56:35.137Z,63.14
2022-12-03T03:59:03.423Z,62.83
2022-12-03T04:01:31.304Z,62.94
2022-12-03T04:03:59.527Z,62.84
2022-12-03T04:06:28.776Z,63.02
2022-12-03T04:08:56.676Z,63.54
2022-12-03T04:11:41.744Z,63.39
2022-12-03T04:14:09.181Z,63.20
2022-12-03T04:16:36.725Z,62.78
2022-12-03T04:19:04.225Z,62.50
2022-12-03T04:21:50.009Z,63.61
2022-12-03T04:24:17.444Z,63.46
2022-12-03T04:27:02.688Z,63.39
2022-12-03T04:29:30.134Z,63.12
2022-12-03T04:32:15.216Z,63.57
2022-12-03T04:35:00.489Z,62.86
2022-12-03T04:37:29.330Z,62.81
2022-12-03T04:39:56.772Z,62.80
2022-12-03T04:42:24.245Z,63.02
2022-12-03T04:44:52.200Z,63.24
2022-12-03T04:47:21.721Z,62.95
2022-12-03T04:49:51.528Z,63.02
2022-12-03T04:52:21.064Z,62.89
2022-12-03T04:54:49.869Z,62.88
2022-12-03T04:57:17.319Z,63.10
2022-12-03T04:59:44.802Z,63.20
2022-12-03T05:02:12.311Z,62.92
2022-12-03T05:04:39.816Z,63.11
2022-12-03T05:07:07.280Z,63.20
2022-12-03T05:09:34.788Z,62.87
2022-12-03T05:12:04.040Z,63.12
2022-12-03T05:14:31.569Z,62.69
2022-12-03T05:16:59.164Z,62.53
2022-12-03T05:19:46.743Z,62.50
2022-12-03T05:22:13.227Z,62.85
2022-12-03T05:24:40.716Z,63.38
2022-12-03T05:27:09.494Z,62.76
2022-12-03T05:29:36.956Z,62.20
2022-12-03T05:32:04.488Z,62.76
2022-12-03T05:34:31.968Z,62.96
2022-12-03T05:36:59.408Z,62.33
2022-12-03T05:39:26.843Z,62.21
2022-12-03T05:42:11.951Z,63.70
2022-12-03T05:44:40.731Z,63.96
2022-12-03T05:47:08.332Z,63.84
2022-12-03T05:49:36.496Z,63.59
2022-12-03T05:52:03.996Z,63.89
2022-12-03T05:54:31.544Z,63.16
2022-12-03T05:56:59.006Z,62.99
2022-12-03T05:59:26.566Z,63.09
2022-12-03T06:01:55.380Z,63.10
2022-12-03T06:04:22.876Z,62.71
2022-12-03T06:06:50.712Z,62.47
2022-12-03T06:09:18.161Z,62.79
2022-12-03T06:11:45.615Z,62.64
2022-12-03T06:14:13.039Z,62.54
2022-12-03T06:16:40.717Z,62.38
2022-12-03T06:19:09.729Z,62.62
2022-12-03T06:21:37.456Z,63.04
2022-12-03T06:24:05.151Z,62.81
2022-12-03T06:26:32.617Z,62.63
2022-12-03T06:29:00.035Z,62.46
2022-12-03T06:31:27.623Z,62.72
2022-12-03T06:33:55.111Z,62.54
2022-12-03T06:36:24.445Z,62.71
2022-12-03T06:38:51.887Z,62.41
2022-12-03T06:41:19.320Z,61.75
2022-12-03T06:43:46.799Z,62.39
2022-12-03T06:46:14.319Z,63.23
2022-12-03T06:48:41.792Z,63.50
2022-12-03T06:51:09.263Z,63.50
2022-12-03T06:53:38.150Z,62.93
2022-12-03T06:56:06.273Z,63.89
2022-12-03T06:58:33.797Z,63.82
2022-12-03T07:01:01.225Z,63.40
2022-12-03T07:03:28.677Z,64.34
2022-12-03T07:05:56.507Z,63.75
2022-12-03T07:08:23.995Z,63.33
2022-12-03T07:10:52.770Z,64.73
2022-12-03T07:13:20.284Z,63.93
2022-12-03T07:15:47.777Z,63.67
2022-12-03T07:18:15.268Z,63.66
2022-12-03T07:20:42.757Z,63.15
2022-12-03T07:23:10.238Z,62.84
2022-12-03T07:25:38.345Z,62.41
2022-12-03T07:28:07.201Z,62.75
2022-12-03T07:30:34.880Z,63.18
2022-12-03T07:33:02.759Z,62.85
2022-12-03T07:35:30.170Z,62.66
2022-12-03T07:37:57.585Z,62.28
2022-12-03T07:40:25.022Z,62.42
2022-12-03T07:42:52.503Z,62.37
2022-12-03T07:45:21.289Z,62.19
2022-12-03T07:47:48.720Z,61.97
2022-12-03T07:50:16.335Z,62.06
2022-12-03T07:52:43.984Z,62.18
2022-12-03T07:55:13.231Z,61.69
2022-12-03T07:57:40.739Z,62.18
2022-12-03T08:00:09.207Z,62.54
2022-12-03T08:02:38.051Z,62.25
2022-12-03T08:05:06.427Z,62.67
2022-12-03T08:07:34.138Z,62.40
2022-12-03T08:10:01.728Z,62.15
2022-12-03T08:12:40.044Z,62.02
2022-12-03T08:15:13.128Z,61.72
2022-12-03T08:17:42.326Z,61.77
2022-12-03T08:20:15.305Z,61.98
2022-12-03T08:22:43.784Z,62.44
2022-12-03T08:25:18.030Z,61.71
2022-12-03T08:27:45.678Z,61.56
2022-12-03T08:30:15.485Z,61.56
2022-12-03T08:32:44.660Z,61.46
2022-12-03T08:35:14.804Z,61.87
2022-12-03T08:37:42.823Z,61.61
2022-12-03T08:40:26.853Z,61.58
2022-12-03T08:42:54.372Z,61.21
2022-12-03T08:45:40.494Z,61.30
2022-12-03T08:48:29.292Z,61.41
2022-12-03T08:50:58.781Z,60.94
2022-12-03T08:53:30.702Z,60.84
2022-12-03T08:56:00.293Z,60.73
2022-12-03T08:58:35.462Z,60.94
2022-12-03T09:01:17.176Z,60.78
2022-12-03T09:03:50.870Z,60.76
2022-12-03T09:06:18.537Z,61.02
2022-12-03T09:08:46.002Z,60.87
2022-12-03T09:11:13.833Z,61.05
2022-12-03T09:13:41.806Z,61.63
2022-12-03T09:16:09.707Z,61.44
2022-12-03T09:18:37.379Z,61.26
2022-12-03T09:21:06.934Z,61.15
2022-12-03T09:23:34.381Z,60.85
2022-12-03T09:26:01.838Z,60.92
2022-12-03T09:28:29.288Z,60.78
2022-12-03T09:30:56.736Z,61.38
2022-12-03T09:33:24.275Z,61.01
2022-12-03T09:35:51.747Z,60.95
2022-12-03T09:38:20.557Z,60.74
2022-12-03T09:40:48.111Z,60.78
2022-12-03T09:43:16.110Z,61.29
2022-12-03T09:45:46.012Z,60.88
2022-12-03T09:48:16.062Z,60.59
2022-12-03T09:50:44.642Z,60.40
2022-12-03T09:53:16.646Z,60.77
2022-12-03T09:55:47.622Z,60.88
2022-12-03T09:58:17.831Z,60.39
2022-12-03T10:00:49.617Z,60.92
2022-12-03T10:03:22.039Z,60.73
2022-12-03T10:05:52.639Z,60.58
2022-12-03T10:08:26.028Z,60.37
2022-12-03T10:10:57.440Z,60.96
2022-12-03T10:13:28.622Z,60.79
2022-12-03T10:15:59.298Z,60.66
2022-12-03T10:18:30.778Z,60.34
2022-12-03T10:20:58.828Z,60.19
2022-12-03T10:23:28.663Z,60.21
2022-12-03T10:26:00.451Z,60.26
2022-12-03T10:28:30.165Z,60.64
2022-12-03T10:30:58.614Z,60.63
2022-12-03T10:33:30.803Z,60.65
2022-12-03T10:35:58.382Z,60.44
2022-12-03T10:38:26.480Z,60.94
2022-12-03T10:40:53.990Z,60.63
2022-12-03T10:43:25.288Z,60.53
2022-12-03T10:46:11.977Z,60.82
2022-12-03T10:48:39.757Z,60.28
2022-12-03T10:51:11.280Z,60.11
2022-12-03T10:53:41.520Z,60.05
2022-12-03T10:56:16.033Z,59.93
2022-12-03T10:58:44.885Z,59.95
2022-12-03T11:01:17.480Z,59.90
2022-12-03T11:03:45.919Z,59.53
2022-12-03T11:06:16.161Z,59.57
2022-12-03T11:08:45.150Z,59.22
2022-12-03T11:11:21.977Z,59.58
2022-12-03T11:13:52.992Z,59.13
2022-12-03T11:17:12.137Z,59.10
2022-12-03T11:19:48.331Z,59.25
2022-12-03T11:22:41.443Z,59.74
2022-12-03T11:25:50.284Z,59.52
2022-12-03T11:28:35.770Z,59.71
2022-12-03T11:31:12.189Z,60.09
2022-12-03T11:33:41.268Z,60.74
2022-12-03T11:36:15.237Z,60.87
2022-12-03T11:38:56.777Z,60.87
2022-12-03T11:41:27.779Z,61.24
2022-12-03T11:44:30.024Z,61.52
2022-12-03T11:47:02.025Z,61.56
2022-12-03T11:49:39.217Z,60.54
2022-12-03T11:52:21.085Z,60.48
2022-12-03T11:54:52.837Z,60.91
2022-12-03T11:57:30.478Z,60.33
2022-12-03T12:00:19.860Z,60.49
2022-12-03T12:02:50.072Z,59.73
2022-12-03T12:05:21.283Z,59.94
2022-12-03T12:07:48.926Z,59.19
2022-12-03T12:10:45.769Z,59.86
2022-12-03T12:13:44.411Z,59.86
2022-12-03T12:16:12.395Z,59.53
2022-12-03T12:18:43.387Z,59.87
2022-12-03T12:21:41.685Z,59.59
2022-12-03T12:24:46.912Z,59.57
2022-12-03T12:27:16.120Z,59.29
2022-12-03T12:29:47.118Z,59.34
2022-12-03T12:32:17.014Z,59.60
2022-12-03T12:34:47.743Z,59.17
2022-12-03T12:37:20.602Z,59.12
2022-12-03T12:39:48.568Z,59.26
2022-12-03T12:42:35.108Z,59.12
2022-12-03T12:45:16.458Z,58.91
2022-12-03T12:47:50.116Z,59.20
2022-12-03T12:50:20.448Z,59.44
2022-12-03T12:52:53.339Z,58.96
2022-12-03T12:55:21.844Z,59.44
2022-12-03T12:57:49.373Z,59.06
2022-12-03T13:00:21.054Z,59.50
2022-12-03T13:02:51.845Z,59.81
2022-12-03T13:05:20.864Z,59.76
2022-12-03T13:07:49.010Z,59.70
2022-12-03T13:10:39.709Z,59.92
2022-12-03T13:13:21.531Z,59.43
2022-12-03T13:15:54.796Z,59.98
2022-12-03T13:18:28.041Z,59.66
2022-12-03T13:20:56.928Z,59.55
2022-12-03T13:23:29.299Z,59.82
2022-12-03T13:26:07.122Z,59.91
2022-12-03T13:28:42.572Z,59.71
2022-12-03T13:31:32.422Z,59.88
2022-12-03T13:34:01.247Z,60.20
2022-12-03T13:36:37.690Z,60.08
2022-12-03T13:39:14.074Z,60.09
2022-12-03T13:42:00.550Z,59.85
2022-12-03T13:44:31.025Z,59.57
2022-12-03T13:47:00.930Z,59.68
2022-12-03T13:49:29.953Z,59.49
2022-12-03T13:51:58.989Z,59.50
2022-12-03T13:54:31.250Z,59.93
2022-12-03T13:57:00.111Z,59.35
2022-12-03T13:59:27.581Z,59.80
2022-12-03T14:01:55.135Z,59.55
2022-12-03T14:04:22.686Z,59.71
2022-12-03T14:06:50.144Z,59.93
2022-12-03T14:09:19.013Z,60.11
2022-12-03T14:12:04.293Z,59.55
2022-12-03T14:14:31.755Z,59.32
2022-12-03T14:17:00.170Z,59.19
2022-12-03T14:19:28.286Z,59.29
2022-12-03T14:21:55.780Z,59.25
2022-12-03T14:24:24.616Z,59.68
2022-12-03T14:26:52.126Z,59.88
2022-12-03T14:29:19.575Z,60.47
2022-12-03T14:31:47.111Z,60.25
2022-12-03T14:34:14.611Z,60.30
2022-12-03T14:36:42.186Z,59.56
2022-12-03T14:39:09.674Z,59.20
2022-12-03T14:41:56.182Z,59.09
2022-12-03T14:44:23.646Z,59.07
2022-12-03T14:46:55.468Z,59.60
2022-12-03T14:49:24.424Z,59.40
2022-12-03T14:51:51.977Z,59.08
2022-12-03T14:54:20.588Z,59.13
2022-12-03T14:56:49.453Z,59.23
2022-12-03T14:59:16.910Z,59.20
2022-12-03T15:01:44.512Z,59.23
2022-12-03T15:04:12.247Z,58.74
2022-12-03T15:06:39.748Z,59.20
2022-12-03T15:09:07.305Z,59.38
2022-12-03T15:11:35.643Z,59.38
2022-12-03T15:14:04.709Z,59.32
2022-12-03T15:16:32.326Z,59.38
2022-12-03T15:18:59.830Z,59.88
2022-12-03T15:21:28.456Z,59.42
2022-12-03T15:23:55.940Z,59.75
2022-12-03T15:26:23.431Z,59.37
2022-12-03T15:28:51.154Z,59.47
2022-12-03T15:31:20.131Z,58.90
2022-12-03T15:33:47.736Z,59.65
2022-12-03T15:36:15.324Z,59.61
2022-12-03T15:38:44.396Z,59.94
2022-12-03T15:41:28.779Z,59.41
2022-12-03T15:43:57.536Z,59.77
2022-12-03T15:46:27.837Z,60.01
2022-12-03T15:48:56.290Z,59.74
2022-12-03T15:51:23.880Z,59.62
2022-12-03T15:53:51.727Z,59.60
2022-12-03T15:56:19.286Z,59.32
2022-12-03T15:58:47.056Z,59.80
2022-12-03T16:01:14.978Z,60.39
2022-12-03T16:03:43.876Z,60.42
2022-12-03T16:06:12.439Z,59.88
2022-12-03T16:08:39.915Z,60.08
2022-12-03T16:11:07.928Z,60.19
2022-12-03T16:13:35.664Z,60.47
2022-12-03T16:16:03.248Z,60.66
2022-12-03T16:18:32.114Z,59.90
2022-12-03T16:21:01.189Z,59.80
2022-12-03T16:23:28.863Z,60.60
2022-12-03T16:25:56.561Z,60.13
2022-12-03T16:28:26.068Z,60.34
2022-12-03T16:30:53.585Z,60.41
2022-12-03T16:33:27.329Z,60.21
2022-12-03T16:35:55.452Z,60.23
2022-12-03T16:38:24.456Z,60.41
2022-12-03T16:40:55.867Z,60.62
2022-12-03T16:43:23.353Z,60.60
2022-12-03T16:46:22.608Z,60.50
2022-12-03T16:48:51.013Z,60.19
2022-12-03T16:51:19.258Z,60.11
2022-12-03T16:53:48.152Z,60.34
2022-12-03T16:56:16.610Z,59.87
2022-12-03T16:58:59.203Z,59.76
2022-12-03T17:01:26.761Z,60.48
2022-12-03T17:03:54.273Z,60.35
2022-12-03T17:06:21.751Z,60.06
2022-12-03T17:08:50.574Z,60.25
2022-12-03T17:11:18.592Z,60.27
2022-12-03T17:13:46.040Z,59.67
2022-12-03T17:16:13.779Z,59.63
2022-12-03T17:18:41.482Z,59.93
2022-12-03T17:21:08.955Z,59.68
2022-12-03T17:23:36.463Z,59.94
2022-12-03T17:26:05.704Z,60.18
2022-12-03T17:28:33.357Z,60.11
2022-12-03T17:31:01.187Z,60.34
2022-12-03T17:33:28.769Z,60.17
2022-12-03T17:35:56.258Z,60.25
2022-12-03T17:38:23.812Z,60.60
2022-12-03T17:40:51.318Z,60.27
2022-12-03T17:43:20.321Z,60.74
2022-12-03T17:45:47.776Z,60.19
2022-12-03T17:48:15.206Z,60.03
2022-12-03T17:50:42.878Z,60.19
2022-12-03T17:53:10.738Z,60.27
2022-12-03T17:55:44.765Z,60.36
2022-12-03T17:58:12.735Z,59.66
2022-12-03T18:00:41.580Z,60.37
2022-12-03T18:03:09.184Z,61.12
2022-12-03T18:05:36.930Z,60.91
2022-12-03T18:08:04.607Z,60.67
2022-12-03T18:10:32.160Z,60.18
2022-12-03T18:13:01.883Z,60.31
2022-12-03T18:15:29.778Z,60.19
2022-12-03T18:17:58.776Z,60.28
2022-12-03T18:20:26.236Z,60.72
2022-12-03T18:22:53.753Z,60.55
2022-12-03T18:25:21.260Z,60.58
2022-12-03T18:27:48.701Z,60.66
2022-12-03T18:30:16.448Z,60.60
2022-12-03T18:32:43.929Z,60.67
2022-12-03T18:35:12.759Z,60.38
2022-12-03T18:37:40.628Z,60.31
2022-12-03T18:40:17.160Z,60.45
2022-12-03T18:42:49.019Z,61.35
2022-12-03T18:45:16.941Z,60.99
2022-12-03T18:47:45.332Z,60.94
2022-12-03T18:50:14.611Z,60.69
2022-12-03T18:52:42.055Z,61.69
2022-12-03T18:55:15.807Z,62.07
2022-12-03T18:57:43.786Z,61.58
2022-12-03T19:00:13.858Z,61.15
2022-12-03T19:05:31.954Z,61.79
2022-12-03T19:07:59.703Z,61.25
2022-12-03T19:10:28.396Z,61.50
2022-12-03T19:12:56.194Z,61.45
2022-12-03T19:15:24.196Z,61.33
2022-12-03T19:17:52.466Z,61.40
2022-12-03T19:20:20.631Z,60.77
2022-12-03T19:22:49.769Z,60.86
2022-12-03T19:25:17.553Z,60.98
2022-12-03T19:27:45.324Z,61.06
2022-12-03T19:30:14.012Z,60.68
2022-12-03T19:32:41.796Z,60.82
2022-12-03T19:35:11.294Z,61.02
2022-12-03T19:37:39.205Z,61.03
2022-12-03T19:40:11.340Z,60.83
2022-12-03T19:42:39.154Z,60.78
2022-12-03T19:45:08.155Z,60.29
2022-12-03T19:47:38.157Z,59.98
2022-12-03T19:50:07.597Z,60.68
2022-12-03T19:52:36.364Z,60.53
2022-12-03T19:55:04.617Z,61.09
2022-12-03T19:57:33.883Z,61.25
2022-12-03T20:00:02.231Z,61.16
2022-12-03T20:02:30.087Z,61.19
2022-12-03T20:04:58.241Z,61.06
2022-12-03T20:07:26.160Z,61.65
2022-12-03T20:09:54.155Z,61.45
2022-12-03T20:12:21.943Z,61.63
2022-12-03T20:14:51.618Z,61.26
2022-12-03T20:17:19.070Z,61.81
2022-12-03T20:19:46.605Z,61.19
2022-12-03T20:22:14.094Z,61.42
2022-12-03T20:24:41.634Z,60.94
2022-12-03T20:27:09.100Z,61.44
2022-12-03T20:29:36.544Z,60.97
2022-12-03T20:32:06.859Z,61.76
2022-12-03T20:34:35.737Z,61.88
2022-12-03T20:37:03.727Z,61.79
2022-12-03T20:39:31.234Z,61.78
2022-12-03T20:41:58.699Z,61.81
2022-12-03T20:44:26.222Z,61.68
2022-12-03T20:46:53.754Z,61.71
2022-12-03T20:49:22.598Z,62.17
2022-12-03T20:51:51.191Z,61.71
2022-12-03T20:54:18.672Z,61.97
2022-12-03T20:56:46.108Z,61.48
2022-12-03T20:59:15.711Z,61.71
2022-12-03T21:01:44.449Z,62.13
2022-12-03T21:04:14.545Z,62.74
2022-12-03T21:06:43.319Z,62.13
2022-12-03T21:09:12.207Z,62.02
2022-12-03T21:11:42.103Z,61.44
2022-12-03T21:14:10.749Z,61.79
2022-12-03T21:17:06.781Z,61.65
2022-12-03T21:19:26.796Z,61.49
2022-12-03T21:21:55.603Z,61.41
2022-12-03T21:24:23.057Z,61.91
2022-12-03T21:26:50.660Z,61.79
2022-12-03T21:29:18.275Z,61.59
2022-12-03T21:31:46.545Z,61.73
2022-12-03T21:34:14.015Z,61.43
2022-12-03T21:36:41.844Z,62.33
2022-12-03T21:39:10.741Z,62.30
2022-12-03T21:41:38.487Z,61.84
2022-12-03T21:44:06.117Z,62.08
2022-12-03T21:47:10.470Z,61.60
2022-12-03T21:49:22.510Z,61.39
2022-12-03T21:51:50.127Z,61.26
2022-12-03T21:54:18.968Z,62.22
2022-12-03T21:56:46.432Z,61.64
2022-12-03T21:59:14.304Z,61.33
2022-12-03T22:01:46.899Z,61.85
2022-12-03T22:04:14.888Z,61.80
2022-12-03T22:06:42.306Z,61.83
2022-12-03T22:09:09.815Z,61.61
2022-12-03T22:11:38.729Z,61.46
2022-12-03T22:14:08.086Z,61.31
2022-12-03T22:16:35.599Z,61.48
2022-12-03T22:19:03.075Z,61.32
2022-12-03T22:21:31.016Z,61.92
2022-12-03T22:23:58.448Z,61.39
2022-12-03T22:26:26.127Z,61.34
2022-12-03T22:28:54.888Z,61.53
2022-12-03T22:31:22.441Z,61.45
2022-12-03T22:33:49.946Z,61.05
2022-12-03T22:36:21.580Z,61.42
2022-12-03T22:38:50.591Z,61.74
2022-12-03T22:41:19.140Z,61.72
2022-12-03T22:43:47.073Z,61.47
2022-12-03T22:46:17.244Z,61.52
2022-12-03T22:48:46.939Z,61.71
2022-12-03T22:51:16.343Z,61.48
2022-12-03T22:53:43.943Z,61.25
2022-12-03T22:56:11.796Z,61.47
2022-12-03T22:58:40.373Z,61.49
2022-12-03T23:01:08.894Z,61.82
2022-12-03T23:03:38.301Z,61.70
2022-12-03T23:06:10.692Z,62.26
2022-12-03T23:08:38.237Z,62.23
2022-12-03T23:11:05.957Z,62.00
2022-12-03T23:13:33.415Z,61.60
2022-12-03T23:16:01.395Z,62.04
2022-12-03T23:18:29.004Z,61.50
2022-12-03T23:20:58.459Z,61.35
2022-12-03T23:23:28.098Z,61.14
2022-12-03T23:25:59.084Z,61.13
2022-12-03T23:28:26.720Z,61.80
2022-12-03T23:30:54.247Z,61.33
2022-12-03T23:33:21.990Z,61.67
2022-12-03T23:35:49.653Z,61.64
2022-12-03T23:38:18.577Z,61.31
2022-12-03T23:40:48.305Z,61.45
2022-12-03T23:43:16.112Z,61.97
2022-12-03T23:45:43.578Z,62.16
2022-12-03T23:48:11.112Z,61.78
2022-12-03T23:50:39.792Z,61.34
2022-12-03T23:53:07.241Z,61.41
2022-12-03T23:55:39.932Z,61.56
2022-12-03T23:58:07.432Z,62.33
